Time;durP1;ratioP1;P1;durP2;ratioP2;P2;SDS_P1;SDS_P2;PMS_P1;PMS_P2;Temp;Humidity;BMP_temperature;BMP_pressure;BME280_temperature;BME280_humidity;BME280_pressure;Samples;Min_cycle;Max_cycle;Signal;HPM_P1;HPM_P2
2021/07/21 00:04:59;;;;;;;10.27;6.38;;;;;;;15.62;54.54;100455.56;10364482;28;20049;-58
2021/07/21 00:10:03;;;;;;;14.18;7.13;;;;;;;15.54;56.10;100447.38;10364490;28;20145;-58
2021/07/21 00:15:08;;;;;;;13.07;7.35;;;;;;;15.31;56.37;100445.50;10364640;28;20137;-58
2021/07/21 00:20:11;;;;;;;14.05;7.07;;;;;;;15.21;56.87;100439.19;10364054;28;20148;-58
2021/07/21 00:25:14;;;;;;;11.65;6.88;;;;;;;15.05;57.05;100444.72;10363070;28;20124;-58
2021/07/21 00:30:18;;;;;;;12.05;6.80;;;;;;;15.06;57.13;100448.19;10363286;28;20050;-58
2021/07/21 00:35:20;;;;;;;9.80;7.00;;;;;;;15.00;57.68;100448.63;10362884;28;20413;-58
2021/07/21 00:40:22;;;;;;;13.70;7.40;;;;;;;15.01;57.71;100450.28;10363534;28;20557;-57
2021/07/21 00:45:24;;;;;;;10.57;7.10;;;;;;;14.91;57.93;100443.97;10363295;28;20058;-58
2021/07/21 00:50:26;;;;;;;14.55;7.40;;;;;;;14.93;57.86;100452.63;10362701;28;20478;-58
2021/07/21 00:55:28;;;;;;;12.15;7.72;;;;;;;14.83;58.36;100441.03;10363569;28;20085;-58
2021/07/21 01:00:29;;;;;;;16.13;8.63;;;;;;;14.67;57.87;100450.94;10362105;28;20129;-58
2021/07/21 01:05:37;;;;;;;11.73;7.68;;;;;;;14.42;59.08;100438.56;10363014;28;20129;-58
2021/07/21 01:11:05;;;;;;;13.07;7.50;;;;;;;14.44;59.63;100436.69;10361911;28;20512;-58
2021/07/21 01:16:13;;;;;;;12.93;7.53;;;;;;;14.46;59.26;100440.06;10328414;28;20132;-58
2021/07/21 01:21:52;;;;;;;10.82;7.15;;;;;;;14.34;59.57;100441.72;10368652;28;20076;-58
2021/07/21 01:27:09;;;;;;;16.42;7.93;;;;;;;14.28;59.72;100442.13;10370627;28;20041;-58
2021/07/21 01:32:15;;;;;;;11.95;7.85;;;;;;;14.24;59.50;100440.66;10371028;28;20057;-58
2021/07/21 01:37:20;;;;;;;13.25;7.43;;;;;;;14.23;59.72;100436.31;10369673;28;20100;-58
2021/07/21 01:42:24;;;;;;;13.05;7.70;;;;;;;14.21;59.68;100429.47;10369152;28;20073;-58
2021/07/21 01:47:31;;;;;;;11.70;7.00;;;;;;;14.21;59.61;100429.47;10370096;28;20129;-58
2021/07/21 01:52:33;;;;;;;14.35;8.43;;;;;;;13.98;59.31;100433.66;10370376;28;20120;-58
2021/07/21 01:57:36;;;;;;;10.02;7.30;;;;;;;13.45;60.46;100434.50;10357841;28;20562;-58
2021/07/21 02:02:40;;;;;;;10.30;7.15;;;;;;;13.39;60.72;100431.38;10371231;28;20451;-58
2021/07/21 02:07:44;;;;;;;13.40;7.65;;;;;;;13.56;60.95;100446.94;10376874;28;20050;-59
2021/07/21 02:12:52;;;;;;;10.82;7.30;;;;;;;13.64;60.51;100442.03;10376062;28;20049;-58
2021/07/21 02:17:54;;;;;;;13.57;6.90;;;;;;;13.67;60.49;100441.84;10375062;28;20136;-58
2021/07/21 02:22:57;;;;;;;12.27;7.68;;;;;;;13.70;60.27;100445.09;10375037;28;20133;-58
2021/07/21 02:27:59;;;;;;;10.90;7.20;;;;;;;13.62;60.08;100436.03;10375988;28;20466;-58
2021/07/21 02:33:15;;;;;;;10.57;6.90;;;;;;;13.50;60.83;100444.69;10376134;28;20121;-58
2021/07/21 02:38:17;;;;;;;14.38;7.18;;;;;;;13.40;60.80;100444.41;10375383;28;20096;-58
2021/07/21 02:43:19;;;;;;;10.98;6.68;;;;;;;13.30;60.57;100439.81;10376307;28;20132;-58
2021/07/21 02:48:20;;;;;;;11.50;7.13;;;;;;;13.22;60.97;100439.47;10375537;28;20133;-58
2021/07/21 02:53:32;;;;;;;11.52;6.70;;;;;;;13.31;61.32;100438.91;10374118;28;20553;-58
2021/07/21 02:58:43;;;;;;;14.23;7.43;;;;;;;13.33;61.16;100434.41;10375077;28;20105;-58
2021/07/21 03:03:46;;;;;;;12.63;7.90;;;;;;;13.21;61.14;100440.41;10371928;28;20125;-58
2021/07/21 03:08:50;;;;;;;10.80;6.55;;;;;;;13.20;61.29;100450.06;10369255;28;20140;-58
2021/07/21 03:14:00;;;;;;;12.05;7.28;;;;;;;13.18;61.27;100454.56;10367136;28;20060;-58
2021/07/21 03:19:05;;;;;;;14.20;7.38;;;;;;;13.09;61.08;100452.50;10366993;28;20056;-58
2021/07/21 03:24:08;;;;;;;11.00;7.10;;;;;;;13.05;61.12;100466.75;10366907;28;20483;-58
2021/07/21 03:29:10;;;;;;;11.27;7.13;;;;;;;13.03;60.91;100460.75;10365489;28;20137;-58
2021/07/21 03:34:13;;;;;;;12.25;7.45;;;;;;;12.98;61.04;100474.16;10366229;28;20174;-58
2021/07/21 03:39:16;;;;;;;10.23;7.03;;;;;;;12.97;61.00;100469.00;10365804;28;20471;-58
2021/07/21 03:44:21;;;;;;;16.05;6.97;;;;;;;12.93;61.13;100471.00;10365475;28;20057;-58
2021/07/21 03:49:23;;;;;;;14.18;7.13;;;;;;;12.94;61.09;100472.66;10365427;28;20141;-58
2021/07/21 03:54:26;;;;;;;12.52;6.70;;;;;;;12.95;61.01;100473.50;10365637;28;20060;-58
2021/07/21 03:59:28;;;;;;;14.02;6.97;;;;;;;12.95;61.11;100478.78;10365718;28;20133;-58
2021/07/21 04:04:30;;;;;;;14.23;6.97;;;;;;;12.98;60.93;100481.22;10365614;28;20237;-58
2021/07/21 04:09:34;;;;;;;9.13;6.47;;;;;;;13.07;60.60;100485.06;10364861;28;20132;-58
2021/07/21 04:14:36;;;;;;;11.45;7.13;;;;;;;13.18;60.26;100480.00;10364484;28;20148;-58
2021/07/21 04:19:41;;;;;;;11.10;6.70;;;;;;;13.28;60.24;100486.34;10363656;28;20160;-59
2021/07/21 04:24:45;;;;;;;10.82;7.20;;;;;;;13.42;59.89;100481.97;10363980;28;20138;-58
2021/07/21 04:29:49;;;;;;;11.73;6.85;;;;;;;14.39;58.09;100481.72;10364150;28;20137;-58
2021/07/21 04:34:52;;;;;;;10.00;6.25;;;;;;;15.89;54.05;100490.50;10364147;28;20046;-58
2021/07/21 04:39:54;;;;;;;10.95;5.97;;;;;;;17.20;51.35;100487.50;10364096;28;20153;-58
2021/07/21 04:44:56;;;;;;;8.10;5.70;;;;;;;18.42;48.57;100490.78;10363949;28;20578;-58
2021/07/21 04:49:59;;;;;;;9.68;5.72;;;;;;;19.53;45.94;100497.13;10363468;28;20534;-59
2021/07/21 04:55:01;;;;;;;9.55;5.25;;;;;;;20.19;44.30;100491.97;10378434;28;20092;-59
2021/07/21 05:00:05;;;;;;;10.75;5.97;;;;;;;20.73;42.88;100504.69;10363067;28;20409;-59
2021/07/21 05:05:08;;;;;;;8.00;4.80;;;;;;;21.61;41.12;100494.50;10363856;28;20049;-59
2021/07/21 05:10:10;;;;;;;10.70;5.28;;;;;;;22.02;40.63;100505.56;10363272;28;20042;-58
2021/07/21 05:15:13;;;;;;;10.50;5.63;;;;;;;22.04;39.83;100507.16;10378083;28;20446;-59
2021/07/21 05:20:15;;;;;;;7.38;4.93;;;;;;;22.54;38.83;100512.75;10363220;28;20088;-59
2021/07/21 05:25:18;;;;;;;9.23;5.40;;;;;;;22.79;38.25;100517.34;10363035;28;20113;-58
2021/07/21 05:30:20;;;;;;;10.40;5.78;;;;;;;21.18;41.04;100519.97;10362901;28;20146;-59
2021/07/21 05:35:21;;;;;;;11.27;5.70;;;;;;;20.33;42.05;100527.91;10363049;28;20124;-59
2021/07/21 05:40:23;;;;;;;11.23;5.97;;;;;;;19.46;43.84;100529.50;10362634;28;20078;-59
2021/07/21 05:45:25;;;;;;;9.80;5.70;;;;;;;19.30;44.75;100529.16;10362392;28;20072;-59
2021/07/21 05:50:27;;;;;;;10.55;5.93;;;;;;;19.16;45.20;100532.16;10361912;28;20137;-59
2021/07/21 05:55:29;;;;;;;9.18;6.10;;;;;;;18.85;45.72;100533.03;10362144;28;20048;-59
2021/07/21 06:00:31;;;;;;;9.68;5.97;;;;;;;18.74;46.28;100542.88;10362437;28;20050;-59
2021/07/21 06:05:33;;;;;;;11.38;5.70;;;;;;;19.06;45.83;100543.69;10364648;28;20058;-59
2021/07/21 06:10:35;;;;;;;10.15;6.20;;;;;;;19.26;45.65;100540.16;10369771;28;20100;-59
2021/07/21 06:15:37;;;;;;;12.43;6.45;;;;;;;19.41;45.45;100552.94;10369419;28;20084;-59
2021/07/21 06:20:39;;;;;;;9.05;6.22;;;;;;;19.19;45.40;100547.81;10369938;28;20495;-59
2021/07/21 06:25:41;;;;;;;13.20;6.95;;;;;;;18.77;46.15;100556.72;10368457;28;20546;-58
2021/07/21 06:30:42;;;;;;;9.98;5.82;;;;;;;18.65;46.66;100558.59;10368986;28;20141;-58
2021/07/21 06:35:45;;;;;;;10.93;6.00;;;;;;;18.66;46.91;100559.44;10368795;28;20104;-59
2021/07/21 06:40:48;;;;;;;11.63;5.65;;;;;;;18.62;47.74;100561.50;10368706;28;20156;-58
2021/07/21 06:45:49;;;;;;;11.32;6.20;;;;;;;18.62;46.86;100561.50;10367886;28;20046;-59
2021/07/21 06:50:51;;;;;;;12.40;5.75;;;;;;;18.51;47.49;100568.63;10368114;28;20052;-58
2021/07/21 06:55:53;;;;;;;18.33;5.43;;;;;;;18.56;47.14;100572.56;10368066;28;20133;-58
2021/07/21 07:00:55;;;;;;;13.15;5.28;;;;;;;18.79;47.36;100575.16;10367386;28;20401;-59
2021/07/21 07:05:58;;;;;;;11.48;5.40;;;;;;;18.68;46.47;100578.69;10367197;28;20050;-59
2021/07/21 07:10:59;;;;;;;13.05;5.78;;;;;;;18.52;46.89;100586.22;10366966;28;20467;-59
2021/07/21 07:16:01;;;;;;;11.95;5.50;;;;;;;18.56;46.29;100587.66;10366386;28;20050;-59
2021/07/21 07:21:03;;;;;;;10.48;5.97;;;;;;;18.72;46.63;100587.22;10367000;28;20409;-58
2021/07/21 07:26:05;;;;;;;13.10;5.75;;;;;;;19.20;46.42;100572.50;10366703;28;20052;-59
2021/07/21 07:31:06;;;;;;;10.20;5.13;;;;;;;19.47;44.85;100580.75;10365778;28;20136;-59
2021/07/21 07:36:08;;;;;;;10.20;5.38;;;;;;;19.62;44.80;100574.13;10366353;28;20110;-59
2021/07/21 07:41:10;;;;;;;8.70;5.00;;;;;;;21.67;41.40;100578.22;10365885;28;20050;-59
2021/07/21 07:46:12;;;;;;;11.05;4.60;;;;;;;23.38;37.71;100560.06;10364743;28;20536;-59
2021/07/21 07:51:14;;;;;;;8.00;4.07;;;;;;;24.40;35.08;100550.13;10383152;28;20386;-59
2021/07/21 07:56:17;;;;;;;7.50;3.65;;;;;;;25.11;33.70;100552.97;10383897;28;20425;-59
2021/07/21 08:01:19;;;;;;;8.23;4.03;;;;;;;25.92;32.40;100546.38;10385861;28;20130;-59
2021/07/21 08:06:21;;;;;;;8.90;4.07;;;;;;;26.18;30.98;100540.72;10394203;28;20509;-59
2021/07/21 08:11:23;;;;;;;6.70;3.70;;;;;;;26.08;31.63;100542.78;10384014;28;20554;-59
2021/07/21 08:16:27;;;;;;;6.95;3.45;;;;;;;26.63;29.74;100526.50;10383795;28;20057;-58
2021/07/21 08:21:29;;;;;;;5.75;3.60;;;;;;;26.60;29.74;100540.28;10366804;28;20072;-59
2021/07/21 08:26:31;;;;;;;6.68;3.33;;;;;;;26.61;29.30;100528.53;10399549;28;20489;-59
2021/07/21 08:31:34;;;;;;;6.43;3.47;;;;;;;26.61;29.11;100525.84;10394143;28;20477;-59
2021/07/21 08:36:37;;;;;;;4.75;3.10;;;;;;;27.56;29.09;100525.06;10363705;28;20049;-59
2021/07/21 08:41:40;;;;;;;5.32;3.30;;;;;;;28.09;27.37;100518.50;10362873;28;20100;-59
2021/07/21 08:46:42;;;;;;;9.30;3.20;;;;;;;27.66;27.01;100511.34;10363156;28;20057;-59
2021/07/21 08:51:45;;;;;;;5.40;3.15;;;;;;;27.16;28.01;100515.63;10363238;28;20486;-59
2021/07/21 08:56:47;;;;;;;5.80;3.17;;;;;;;26.96;26.64;100513.63;10363024;28;20056;-59
2021/07/21 09:01:50;;;;;;;7.35;3.25;;;;;;;26.60;27.35;100518.81;10362490;28;20409;-59
2021/07/21 09:06:52;;;;;;;6.05;3.30;;;;;;;26.08;28.21;100518.66;10363933;28;20094;-59
2021/07/21 09:11:56;;;;;;;6.35;3.50;;;;;;;26.44;27.73;100513.56;10361547;28;20092;-59
2021/07/21 09:17:20;;;;;;;7.65;3.50;;;;;;;26.90;28.00;100509.81;10362051;28;20387;-59
2021/07/21 09:22:28;;;;;;;5.10;3.25;;;;;;;27.01;28.04;100512.06;10322813;28;20141;-59
2021/07/21 09:27:30;;;;;;;5.20;3.13;;;;;;;26.65;27.86;100509.22;10325600;28;20188;-59
2021/07/21 09:32:48;;;;;;;5.60;3.35;;;;;;;26.66;27.00;100518.09;10362554;28;20054;-59
2021/07/21 09:37:50;;;;;;;9.20;3.55;;;;;;;26.70;27.92;100508.69;10362651;28;20053;-59
2021/07/21 09:42:52;;;;;;;7.65;3.30;;;;;;;26.84;27.74;100507.88;10329428;28;20125;-59
2021/07/21 09:47:58;;;;;;;5.38;3.33;;;;;;;27.06;27.21;100511.50;10335823;28;20421;-59
2021/07/21 09:53:06;;;;;;;5.38;3.70;;;;;;;26.77;26.92;100511.47;10370378;28;20077;-59
2021/07/21 09:58:19;;;;;;;8.93;3.83;;;;;;;27.12;26.86;100510.75;10369563;28;20065;-59
2021/07/21 10:03:26;;;;;;;4.85;3.30;;;;;;;27.12;26.11;100506.22;10370200;28;20046;-59
2021/07/21 10:08:35;;;;;;;7.07;3.75;;;;;;;26.82;26.30;100517.94;10370385;28;20046;-59
2021/07/21 10:13:37;;;;;;;;;;;;;;;26.87;26.48;100515.56;10385240;28;20129;-59
2021/07/21 10:18:38;;;;;;;4.80;3.30;;;;;;;27.25;26.78;100509.16;10383881;28;19956;-59
2021/07/21 10:23:40;;;;;;;5.65;3.47;;;;;;;27.19;26.19;100495.63;10370072;28;20074;-58
2021/07/21 10:28:42;;;;;;;5.57;3.35;;;;;;;27.34;27.25;100491.09;10368166;28;20060;-59
2021/07/21 10:33:43;;;;;;;5.63;3.50;;;;;;;26.68;27.80;100490.09;10369319;28;20133;-59
2021/07/21 10:38:45;;;;;;;5.93;3.60;;;;;;;26.87;26.44;100499.47;10383569;28;20474;-59
2021/07/21 10:43:51;;;;;;;4.88;3.30;;;;;;;26.25;26.71;100495.25;10367799;28;20053;-59
2021/07/21 10:49:15;;;;;;;5.10;3.40;;;;;;;25.42;27.86;100503.06;10368004;28;20133;-59
2021/07/21 10:54:42;;;;;;;5.20;3.65;;;;;;;25.51;28.85;100491.31;10367402;28;20526;-59
2021/07/21 10:59:47;;;;;;;6.38;3.63;;;;;;;25.79;29.45;100494.38;10366375;28;20478;-59
2021/07/21 11:04:49;;;;;;;6.32;3.83;;;;;;;25.69;28.44;100491.06;10367627;28;20053;-59
2021/07/21 11:09:51;;;;;;;8.13;3.70;;;;;;;25.30;29.56;100493.72;10367893;28;20064;-59
2021/07/21 11:14:56;;;;;;;5.70;3.75;;;;;;;24.89;28.63;100492.13;10367235;28;20100;-59
2021/07/21 11:19:58;;;;;;;6.70;3.60;;;;;;;24.57;28.00;100492.97;10367730;28;20124;-58
2021/07/21 11:25:05;;;;;;;5.78;3.35;;;;;;;25.00;28.29;100479.22;10365470;28;20125;-59
2021/07/21 11:30:40;;;;;;;7.40;3.67;;;;;;;25.09;29.10;100485.41;10366508;28;20524;-59
2021/07/21 11:35:42;;;;;;;6.85;4.03;;;;;;;25.21;29.98;100478.66;10366151;28;20058;-59
2021/07/21 11:40:44;;;;;;;6.63;4.10;;;;;;;24.83;30.79;100477.63;10366960;28;20135;-59
2021/07/21 11:45:46;;;;;;;5.57;4.03;;;;;;;24.74;31.04;100483.97;10365622;28;20125;-59
2021/07/21 11:50:48;;;;;;;5.50;3.70;;;;;;;24.82;29.71;100473.25;10365849;28;20129;-59
2021/07/21 11:55:54;;;;;;;7.90;3.97;;;;;;;25.31;29.78;100467.75;10365048;28;20141;-59
2021/07/21 12:00:56;;;;;;;6.57;3.97;;;;;;;25.39;30.05;100463.22;10365782;28;20054;-59
2021/07/21 12:05:58;;;;;;;6.93;3.90;;;;;;;25.12;29.03;100466.34;10364857;28;20414;-58
2021/07/21 12:11:10;;;;;;;7.32;3.95;;;;;;;25.03;30.71;100462.00;10364799;28;20038;-59
2021/07/21 12:16:11;;;;;;;6.55;3.88;;;;;;;25.31;29.89;100449.00;10364513;28;20132;-59
2021/07/21 12:21:13;;;;;;;8.43;4.18;;;;;;;25.50;29.24;100445.94;10365024;28;20081;-59
2021/07/21 12:26:15;;;;;;;5.85;3.80;;;;;;;25.50;29.23;100454.00;10363460;28;20064;-59
2021/07/21 12:31:30;;;;;;;6.13;4.18;;;;;;;25.04;28.64;100452.94;10364380;28;20088;-59
2021/07/21 12:36:31;;;;;;;8.38;3.60;;;;;;;25.33;29.92;100458.53;10363764;28;20096;-58
2021/07/21 12:41:33;;;;;;;7.78;4.03;;;;;;;25.13;29.30;100464.47;10363879;28;20053;-59
2021/07/21 12:46:35;;;;;;;6.72;3.88;;;;;;;25.17;30.16;100458.59;10362384;28;20088;-59
2021/07/21 12:51:38;;;;;;;8.85;3.80;;;;;;;25.17;29.68;100447.06;10363439;28;20104;-59
2021/07/21 12:56:40;;;;;;;8.85;3.75;;;;;;;25.43;28.88;100447.66;10363090;28;20550;-59
2021/07/21 13:01:41;;;;;;;5.00;3.63;;;;;;;25.21;28.52;100448.38;10363750;28;20133;-59
2021/07/21 13:06:43;;;;;;;9.30;4.15;;;;;;;25.22;30.34;100445.56;10362764;28;20384;-59
2021/07/21 13:11:45;;;;;;;6.95;3.80;;;;;;;25.02;29.50;100453.13;10376472;28;20128;-59
2021/07/21 13:16:47;;;;;;;7.30;4.20;;;;;;;24.86;29.34;100445.16;10360803;28;20041;-59
2021/07/21 13:21:50;;;;;;;6.40;4.07;;;;;;;25.18;28.84;100433.53;10371500;28;20045;-58
2021/07/21 13:26:57;;;;;;;8.02;3.63;;;;;;;25.21;28.33;100435.00;10371786;28;20046;-59
2021/07/21 13:32:00;;;;;;;5.88;3.80;;;;;;;25.11;28.08;100427.19;10377395;28;20050;-59
2021/07/21 13:37:06;;;;;;;6.10;3.58;;;;;;;25.26;28.59;100421.94;10371291;28;20053;-59
2021/07/21 13:42:18;;;;;;;5.07;3.70;;;;;;;25.60;27.58;100417.94;10369936;28;20049;-58
2021/07/21 13:47:27;;;;;;;5.00;3.58;;;;;;;25.82;27.92;100427.00;10360281;28;20133;-59
2021/07/21 13:52:29;;;;;;;;;;;;;;;25.45;28.28;100417.00;10361837;28;20157;-59
2021/07/21 13:57:31;;;;;;;5.78;3.72;;;;;;;25.70;28.53;100415.88;10363829;28;20021;-59
2021/07/21 14:02:33;;;;;;;6.30;3.90;;;;;;;25.64;28.39;100423.78;10373741;28;20081;-59
2021/07/21 14:07:35;;;;;;;6.63;3.67;;;;;;;25.51;28.27;100416.31;10359395;28;20092;-59
2021/07/21 14:12:37;;;;;;;9.18;4.25;;;;;;;25.69;28.77;100416.06;10360322;28;20076;-59
2021/07/21 14:17:39;;;;;;;6.72;4.05;;;;;;;25.37;27.93;100422.41;10359579;28;20469;-59
2021/07/21 14:22:41;;;;;;;5.70;3.55;;;;;;;25.57;28.19;100417.47;10357478;28;20133;-59
2021/07/21 14:27:43;;;;;;;5.82;3.70;;;;;;;25.96;27.49;100412.88;10353133;28;20104;-59
2021/07/21 14:32:44;;;;;;;6.70;3.90;;;;;;;26.02;28.25;100403.31;10367743;28;20058;-58
2021/07/21 14:37:46;;;;;;;7.93;4.00;;;;;;;25.96;27.11;100407.50;10368015;28;20054;-59
2021/07/21 14:42:48;;;;;;;9.93;4.07;;;;;;;25.97;28.18;100402.97;10338993;28;20590;-59
2021/07/21 14:47:50;;;;;;;7.97;3.80;;;;;;;25.78;27.73;100393.53;10355372;28;20087;-59
2021/07/21 14:52:51;;;;;;;11.40;4.05;;;;;;;25.77;28.23;100394.56;10367035;28;20044;-59
2021/07/21 14:57:58;;;;;;;8.73;4.03;;;;;;;25.69;27.45;100394.63;10366416;28;20407;-59
2021/07/21 15:03:04;;;;;;;5.90;3.90;;;;;;;25.85;28.00;100398.00;10367123;28;20582;-59
2021/07/21 15:08:07;;;;;;;6.00;3.90;;;;;;;26.01;27.69;100397.09;10380771;28;20042;-59
2021/07/21 15:13:08;;;;;;;5.65;4.07;;;;;;;25.81;28.44;100395.88;10382083;28;20124;-59
2021/07/21 15:18:10;;;;;;;7.30;3.88;;;;;;;25.66;28.14;100393.13;10381886;28;20132;-59
2021/07/21 15:23:12;;;;;;;6.00;4.00;;;;;;;25.92;27.86;100390.94;10367712;28;20125;-59
2021/07/21 15:28:14;;;;;;;7.63;3.97;;;;;;;26.20;27.03;100385.84;10365467;28;20145;-59
2021/07/21 15:33:15;;;;;;;5.38;3.88;;;;;;;26.00;28.31;100384.69;10365675;28;20054;-59
2021/07/21 15:38:17;;;;;;;7.07;4.20;;;;;;;26.24;29.29;100381.00;10366278;28;20136;-59
2021/07/21 15:43:19;;;;;;;8.70;5.13;;;;;;;25.94;29.03;100382.69;10366006;28;20053;-59
2021/07/21 15:48:20;;;;;;;8.10;4.03;;;;;;;25.87;29.20;100387.13;10366038;28;20049;-59
2021/07/21 15:53:22;;;;;;;5.32;4.10;;;;;;;26.01;28.13;100380.16;10366009;28;20054;-59
2021/07/21 15:58:24;;;;;;;7.22;4.18;;;;;;;25.92;27.92;100374.84;10365301;28;20148;-59
2021/07/21 16:03:25;;;;;;;6.45;3.90;;;;;;;25.86;28.42;100374.72;10360539;28;20037;-59
2021/07/21 16:08:27;;;;;;;6.57;4.28;;;;;;;25.75;28.59;100375.16;10341763;28;20046;-59
2021/07/21 16:13:29;;;;;;;8.23;4.05;;;;;;;25.54;29.12;100364.25;10379781;28;20414;-59
2021/07/21 16:18:33;;;;;;;7.40;4.65;;;;;;;25.32;28.74;100373.03;10364400;28;20046;-59
2021/07/21 16:23:36;;;;;;;6.93;4.03;;;;;;;25.31;28.93;100371.38;10363027;28;20084;-59
2021/07/21 16:28:40;;;;;;;6.78;4.18;;;;;;;25.30;28.88;100367.88;10364031;28;20475;-58
2021/07/21 16:33:41;;;;;;;6.47;3.95;;;;;;;25.58;28.96;100370.91;10323529;28;20133;-59
2021/07/21 16:38:43;;;;;;;6.63;4.00;;;;;;;25.53;28.59;100368.75;10324556;28;20130;-59
2021/07/21 16:43:45;;;;;;;6.95;4.45;;;;;;;25.56;29.04;100363.06;10379166;28;20513;-59
2021/07/21 16:48:46;;;;;;;6.05;4.15;;;;;;;25.44;28.95;100374.34;10363896;28;20045;-59
2021/07/21 16:53:48;;;;;;;8.00;4.35;;;;;;;25.62;28.51;100366.88;10363592;28;20141;-59
2021/07/21 16:58:50;;;;;;;7.22;4.28;;;;;;;25.87;28.66;100361.13;10363670;28;20473;-59
2021/07/21 17:03:52;;;;;;;6.97;4.03;;;;;;;25.88;29.31;100359.28;10363039;28;20478;-58
2021/07/21 17:08:54;;;;;;;8.48;4.45;;;;;;;25.67;30.02;100359.94;10364545;28;20557;-59
2021/07/21 17:13:55;;;;;;;9.32;4.15;;;;;;;25.36;29.80;100359.16;10363054;28;20124;-59
2021/07/21 17:18:57;;;;;;;6.85;4.53;;;;;;;25.11;30.15;100357.59;10363200;28;20627;-59
2021/07/21 17:24:00;;;;;;;7.32;4.18;;;;;;;24.98;29.95;100368.84;10362714;28;20053;-59
2021/07/21 17:29:01;;;;;;;5.97;4.53;;;;;;;24.89;29.88;100367.22;10385895;28;20057;-59
2021/07/21 17:34:03;;;;;;;6.05;4.60;;;;;;;24.84;31.11;100360.69;10361934;28;20129;-58
2021/07/21 17:39:06;;;;;;;5.82;4.35;;;;;;;24.73;31.04;100367.28;10361949;28;20052;-59
2021/07/21 17:44:08;;;;;;;7.03;4.60;;;;;;;24.53;31.31;100363.25;10346789;28;20517;-59
2021/07/21 17:49:11;;;;;;;9.70;4.85;;;;;;;24.56;32.37;100372.78;10338910;28;20046;-59
2021/07/21 17:54:14;;;;;;;11.23;4.35;;;;;;;24.57;31.11;100369.13;10324877;28;20073;-59
2021/07/21 17:59:16;;;;;;;10.77;4.80;;;;;;;24.42;33.43;100366.31;10361787;28;20132;-60
2021/07/21 18:04:18;;;;;;;8.18;4.65;;;;;;;24.56;33.16;100368.28;10367566;28;20391;-59
2021/07/21 18:09:20;;;;;;;15.57;8.65;;;;;;;24.45;34.13;100376.66;10369250;28;20081;-61
2021/07/21 18:14:22;;;;;;;10.18;5.28;;;;;;;24.18;33.73;100372.50;10369905;28;20073;-61
2021/07/21 18:19:24;;;;;;;8.60;5.13;;;;;;;24.01;34.62;100378.84;10367624;28;20145;-60
2021/07/21 18:24:26;;;;;;;6.22;4.70;;;;;;;23.99;35.39;100372.84;10368127;28;20098;-60
2021/07/21 18:29:28;;;;;;;8.85;5.25;;;;;;;23.46;36.63;100375.09;10368985;28;20072;-61
2021/07/21 18:34:30;;;;;;;15.35;5.30;;;;;;;23.24;36.24;100375.69;10351898;28;20113;-61
2021/07/21 18:39:32;;;;;;;8.68;5.35;;;;;;;23.24;35.92;100379.19;10364578;28;20287;-61
2021/07/21 18:44:35;;;;;;;6.40;4.55;;;;;;;23.11;36.60;100376.13;10368381;28;20050;-61
2021/07/21 18:49:36;;;;;;;11.20;4.80;;;;;;;22.90;36.97;100377.53;10367414;28;20140;-61
2021/07/21 18:54:40;;;;;;;8.32;4.97;;;;;;;22.37;38.25;100381.19;10366577;28;20054;-61
2021/07/21 18:59:42;;;;;;;7.50;4.78;;;;;;;22.10;38.92;100388.47;10366985;28;20053;-61
2021/07/21 19:04:44;;;;;;;10.93;5.00;;;;;;;21.92;40.14;100392.94;10381726;28;20041;-60
2021/07/21 19:09:45;;;;;;;6.63;4.95;;;;;;;21.64;40.53;100394.88;10351624;28;20144;-59
2021/07/21 19:14:47;;;;;;;8.82;4.75;;;;;;;21.66;41.47;100398.22;10365166;28;20050;-60
2021/07/21 19:19:49;;;;;;;7.70;4.65;;;;;;;21.66;40.40;100392.88;10366246;28;20354;-59
2021/07/21 19:24:50;;;;;;;11.27;4.80;;;;;;;21.56;40.80;100414.22;10366101;28;20136;-60
2021/07/21 19:29:52;;;;;;;10.20;6.65;;;;;;;21.52;41.54;100414.66;10366351;28;20056;-60
2021/07/21 19:34:54;;;;;;;9.38;5.38;;;;;;;21.54;42.38;100415.34;10366157;28;20138;-60
2021/07/21 19:39:56;;;;;;;9.13;5.05;;;;;;;21.38;43.36;100415.19;10366417;28;20062;-60
2021/07/21 19:44:57;;;;;;;10.85;5.25;;;;;;;21.23;44.18;100428.13;10380382;28;20391;-60
2021/07/21 19:50:00;;;;;;;10.25;5.13;;;;;;;21.26;44.62;100435.81;10364669;28;20160;-60
2021/07/21 19:55:03;;;;;;;13.20;5.07;;;;;;;21.26;44.75;100437.63;10365049;28;20145;-60
2021/07/21 20:00:07;;;;;;;11.13;6.20;;;;;;;21.28;44.28;100440.97;10364669;28;20168;-60
2021/07/21 20:05:10;;;;;;;10.95;5.25;;;;;;;21.19;44.25;100433.88;10365530;28;20121;-60
2021/07/21 20:10:12;;;;;;;9.38;5.03;;;;;;;21.02;45.24;100435.50;10363627;28;20088;-60
2021/07/21 20:15:14;;;;;;;11.93;4.97;;;;;;;20.82;45.80;100439.22;10364326;28;20141;-60
2021/07/21 20:20:15;;;;;;;9.10;5.60;;;;;;;20.65;45.97;100440.78;10364029;28;20085;-60
2021/07/21 20:25:19;;;;;;;7.75;5.65;;;;;;;19.84;48.18;100443.88;10362774;28;20117;-59
2021/07/21 20:30:21;;;;;;;6.93;5.30;;;;;;;19.57;48.37;100448.13;10364551;28;20149;-60
2021/07/21 20:35:22;;;;;;;8.02;4.82;;;;;;;19.67;48.30;100452.47;10363285;28;20076;-59
2021/07/21 20:40:24;;;;;;;9.82;5.40;;;;;;;19.61;48.89;100461.00;10364509;28;20164;-59
2021/07/21 20:45:27;;;;;;;8.18;5.50;;;;;;;19.59;49.01;100459.44;10364451;28;20425;-59
2021/07/21 20:50:30;;;;;;;6.88;5.30;;;;;;;19.46;49.13;100457.88;10362983;28;20053;-60
2021/07/21 20:55:31;;;;;;;9.40;6.10;;;;;;;19.36;49.59;100462.31;10363561;28;20049;-60
2021/07/21 21:00:33;;;;;;;11.43;5.82;;;;;;;19.21;50.17;100453.06;10363552;28;20514;-59
2021/07/21 21:05:35;;;;;;;8.48;5.18;;;;;;;19.14;50.58;100459.00;10363411;28;20050;-59
2021/07/21 21:10:37;;;;;;;9.48;4.93;;;;;;;19.06;50.54;100462.34;10363066;28;20057;-59
2021/07/21 21:15:39;;;;;;;7.97;5.70;;;;;;;18.90;51.08;100463.75;10363220;28;20134;-59
2021/07/21 21:20:40;;;;;;;9.57;5.57;;;;;;;18.77;51.48;100463.16;10363306;28;20382;-59
2021/07/21 21:25:43;;;;;;;10.05;5.70;;;;;;;18.56;52.00;100463.97;10363469;28;20518;-59
2021/07/21 21:30:48;;;;;;;11.05;6.43;;;;;;;18.01;52.95;100468.66;10362759;28;20144;-60
2021/07/21 21:35:51;;;;;;;10.38;6.38;;;;;;;17.95;53.58;100479.75;10363241;28;20578;-59
2021/07/21 21:40:53;;;;;;;22.20;13.57;;;;;;;17.93;53.20;100486.97;10371582;28;20050;-59
2021/07/21 21:45:55;;;;;;;15.25;6.50;;;;;;;17.54;54.20;100488.38;10371943;28;20105;-59
2021/07/21 21:50:57;;;;;;;15.02;6.95;;;;;;;17.51;54.50;100501.84;10370772;28;20435;-59
2021/07/21 21:55:58;;;;;;;11.38;6.90;;;;;;;17.08;55.41;100501.69;10369454;28;20566;-59
2021/07/21 22:01:00;;;;;;;12.05;6.85;;;;;;;17.24;54.99;100504.81;10370453;28;20280;-59
2021/07/21 22:06:02;;;;;;;9.23;6.35;;;;;;;17.43;54.85;100491.03;10370777;28;20470;-59
2021/07/21 22:11:04;;;;;;;9.18;6.20;;;;;;;17.50;54.74;100495.72;10385432;28;20073;-59
2021/07/21 22:16:06;;;;;;;8.60;6.40;;;;;;;17.38;55.10;100499.34;10368992;28;20089;-59
2021/07/21 22:21:10;;;;;;;10.23;6.10;;;;;;;17.32;55.06;100497.16;10370433;28;20060;-60
2021/07/21 22:26:12;;;;;;;8.32;6.50;;;;;;;17.31;55.10;100511.31;10369856;28;20096;-60
2021/07/21 22:31:16;;;;;;;14.13;6.60;;;;;;;17.11;55.41;100506.75;10367282;28;20435;-60
2021/07/21 22:36:24;;;;;;;8.98;6.05;;;;;;;17.15;56.15;100510.00;10366212;28;20068;-59
2021/07/21 22:41:26;;;;;;;11.27;6.88;;;;;;;17.18;56.18;100509.78;10366515;28;20046;-59
2021/07/21 22:46:28;;;;;;;10.65;6.10;;;;;;;17.05;56.49;100507.22;10365881;28;20086;-59
2021/07/21 22:51:30;;;;;;;8.30;6.25;;;;;;;17.02;56.16;100510.09;10366288;28;20108;-59
2021/07/21 22:56:32;;;;;;;11.68;6.20;;;;;;;17.00;56.06;100504.09;10366287;28;20054;-59
2021/07/21 23:02:05;;;;;;;11.63;5.88;;;;;;;16.68;56.67;100498.63;10365655;28;20133;-59
2021/07/21 23:07:45;;;;;;;13.73;6.70;;;;;;;16.62;56.58;100499.09;10366155;28;20112;-59
2021/07/21 23:13:23;;;;;;;11.57;6.30;;;;;;;16.61;56.51;100494.75;10365751;28;20125;-59